Time;durP1;ratioP1;P1;durP2;ratioP2;P2;SDS_P1;SDS_P2;PMS_P1;PMS_P2;Temp;Humidity;BMP_temperature;BMP_pressure;BME280_temperature;BME280_humidity;BME280_pressure;Samples;Min_cycle;Max_cycle;Signal;HPM_P1;HPM_P2
2022/12/04 00:02:09;;;;;;;11.75;4.97;;;;;;;-19.35;54.02;99458.94;6201021;28;20046;-67
2022/12/04 00:05:12;;;;;;;41.08;13.20;;;;;;;-19.35;53.71;99458.94;6200297;28;20050;-67
2022/12/04 00:08:16;;;;;;;4.93;3.10;;;;;;;-19.34;53.86;99444.00;6200882;28;20058;-68
2022/12/04 00:11:23;;;;;;;44.83;13.07;;;;;;;-19.19;54.75;99457.06;6200956;28;20042;-67
2022/12/04 00:14:25;;;;;;;17.60;7.85;;;;;;;-19.08;54.02;99451.41;6200032;28;20193;-66
2022/12/04 00:17:28;;;;;;;23.73;7.75;;;;;;;-18.87;54.13;99444.97;6200077;28;20049;-67
2022/12/04 00:20:29;;;;;;;33.58;10.77;;;;;;;-18.73;54.52;99433.63;6199809;28;20525;-66
2022/12/04 00:23:32;;;;;;;40.70;10.27;;;;;;;-18.66;54.88;99437.56;6200039;28;20196;-66
2022/12/04 00:26:33;;;;;;;15.07;6.50;;;;;;;-18.59;54.68;99433.22;6200071;28;20072;-67
2022/12/04 00:29:38;;;;;;;12.05;4.82;;;;;;;-18.49;54.53;99419.84;6199747;28;20051;-66
2022/12/04 00:32:39;;;;;;;17.20;7.38;;;;;;;-18.32;54.80;99421.34;6199978;28;20533;-66
2022/12/04 00:35:43;;;;;;;19.08;7.80;;;;;;;-18.26;54.96;99426.91;6200295;28;20132;-66
2022/12/04 00:38:44;;;;;;;17.20;7.38;;;;;;;-18.22;55.13;99418.91;6199722;28;20050;-66
2022/12/04 00:41:46;;;;;;;19.13;7.18;;;;;;;-18.19;55.12;99411.63;6199444;28;20053;-66
2022/12/04 00:44:47;;;;;;;19.20;7.20;;;;;;;-18.19;55.30;99416.66;6199835;28;20509;-66
2022/12/04 00:47:48;;;;;;;17.98;9.07;;;;;;;-18.27;55.39;99414.22;6199470;28;20065;-67
2022/12/04 00:50:50;;;;;;;35.25;13.38;;;;;;;-18.42;55.31;99403.72;6198313;28;20042;-66
2022/12/04 00:53:55;;;;;;;57.95;21.67;;;;;;;-18.50;55.38;99405.53;6200243;28;20061;-67
2022/12/04 00:57:01;;;;;;;39.45;14.23;;;;;;;-18.61;55.13;99407.09;6199768;28;20046;-66
2022/12/04 01:00:03;;;;;;;34.55;13.65;;;;;;;-18.60;55.37;99402.94;6199084;28;20050;-66
2022/12/04 01:03:06;;;;;;;35.33;15.23;;;;;;;-18.62;55.46;99397.81;6199059;28;20053;-67
2022/12/04 01:06:17;;;;;;;31.88;12.77;;;;;;;-18.69;55.12;99405.53;6199075;28;20090;-67
2022/12/04 01:09:21;;;;;;;21.15;8.75;;;;;;;-18.77;55.38;99408.13;6199820;28;20061;-68
2022/12/04 01:12:22;;;;;;;17.70;7.20;;;;;;;-18.82;55.28;99401.09;6198749;28;20556;-66
2022/12/04 01:15:28;;;;;;;13.70;6.60;;;;;;;-18.82;55.58;99400.19;6199390;28;20046;-68
2022/12/04 01:18:30;;;;;;;18.90;7.97;;;;;;;-18.80;55.37;99408.75;6198449;28;20050;-67
2022/12/04 01:21:35;;;;;;;13.18;5.63;;;;;;;-18.82;55.27;99410.22;6199210;28;20054;-66
2022/12/04 01:24:37;;;;;;;10.88;5.60;;;;;;;-18.89;55.29;99407.91;6198813;28;20050;-66
2022/12/04 01:27:38;;;;;;;9.60;4.88;;;;;;;-18.97;54.81;99393.78;6198320;28;20062;-66
2022/12/04 01:30:42;;;;;;;10.27;4.85;;;;;;;-19.03;55.05;99389.97;6198644;28;20046;-66
2022/12/04 01:33:47;;;;;;;13.45;8.07;;;;;;;-19.05;55.49;99391.50;6198476;28;20054;-68
2022/12/04 01:36:51;;;;;;;14.50;7.53;;;;;;;-19.10;55.07;99396.84;6198953;28;20042;-67
2022/12/04 01:39:54;;;;;;;14.98;5.30;;;;;;;-19.23;54.94;99378.91;6198085;28;20050;-67
2022/12/04 01:42:58;;;;;;;;;;;;;;;-19.19;55.60;99391.84;6198073;28;20536;-67
2022/12/04 01:46:05;;;;;;;16.75;7.05;;;;;;;-19.21;55.14;99385.84;6198597;28;19921;-67
2022/12/04 01:49:24;;;;;;;22.55;8.60;;;;;;;-19.22;55.36;99380.66;6198314;28;20568;-67
2022/12/04 01:52:28;;;;;;;22.67;10.23;;;;;;;-19.28;55.32;99375.97;6198465;28;20054;-67
2022/12/04 01:55:35;;;;;;;15.98;7.72;;;;;;;-19.33;54.67;99372.16;6198606;28;20045;-67
2022/12/04 01:58:41;;;;;;;14.10;6.10;;;;;;;-19.31;55.34;99365.66;6197720;28;20196;-67
2022/12/04 02:01:52;;;;;;;17.08;6.60;;;;;;;-19.23;54.89;99374.75;6197488;28;20417;-67
2022/12/04 02:04:56;;;;;;;18.70;8.50;;;;;;;-19.19;54.95;99365.88;6197634;28;20046;-67
2022/12/04 02:08:04;;;;;;;18.85;8.25;;;;;;;-19.27;55.37;99363.59;6198196;28;20053;-67
2022/12/04 02:11:08;;;;;;;20.77;6.68;;;;;;;-19.26;55.43;99359.44;6197580;28;20076;-67
2022/12/04 02:14:58;;;;;;;14.60;6.28;;;;;;;-19.23;55.49;99354.69;6180804;28;20129;-68
2022/12/04 02:18:25;;;;;;;9.00;5.32;;;;;;;-19.20;55.03;99354.97;6169581;28;20046;-67
2022/12/04 02:21:34;;;;;;;11.05;5.05;;;;;;;-19.12;55.82;99356.53;6197972;28;20509;-67
2022/12/04 02:25:05;;;;;;;12.23;4.32;;;;;;;-18.99;55.40;99365.16;6197805;28;20497;-67
2022/12/04 02:28:18;;;;;;;10.68;5.40;;;;;;;-18.86;55.05;99350.47;6170179;28;20058;-66
2022/12/04 02:31:26;;;;;;;19.88;7.13;;;;;;;-18.85;55.13;99349.69;6197878;28;20413;-65
2022/12/04 02:34:36;;;;;;;9.63;5.00;;;;;;;-18.86;54.96;99363.00;6196388;28;20046;-66
2022/12/04 02:37:46;;;;;;;4.88;3.10;;;;;;;-18.83;55.30;99351.59;6196858;28;20418;-67
2022/12/04 02:40:57;;;;;;;11.90;5.67;;;;;;;-18.82;55.36;99349.97;6197536;28;20046;-66
2022/12/04 02:44:09;;;;;;;9.57;3.60;;;;;;;-18.91;55.28;99334.09;6180715;28;20825;-68
2022/12/04 02:47:18;;;;;;;11.57;5.15;;;;;;;-18.83;55.29;99343.19;6197349;28;20129;-66
2022/12/04 02:50:21;;;;;;;15.70;5.82;;;;;;;-18.84;55.03;99331.41;6196234;28;20050;-68
2022/12/04 02:53:40;;;;;;;17.27;5.75;;;;;;;-18.76;55.17;99334.56;6196168;28;20049;-66
2022/12/04 02:56:49;;;;;;;10.10;4.97;;;;;;;-18.72;55.10;99332.44;6197284;28;20034;-67
2022/12/04 02:59:55;;;;;;;3.80;2.08;;;;;;;-18.58;55.11;99342.06;6197040;28;20413;-66
2022/12/04 03:03:09;;;;;;;3.20;1.88;;;;;;;-18.26;55.30;99336.44;6197079;28;20421;-66
2022/12/04 03:06:12;;;;;;;14.88;4.80;;;;;;;-18.11;55.70;99316.81;6197188;28;20049;-66
2022/12/04 03:09:25;;;;;;;16.30;5.28;;;;;;;-18.10;55.11;99332.75;6197025;28;20416;-67
2022/12/04 03:12:37;;;;;;;14.45;5.45;;;;;;;-18.18;55.08;99334.59;6199282;28;20065;-67
2022/12/04 03:15:46;;;;;;;13.82;5.07;;;;;;;-18.31;55.17;99317.59;6204962;28;20050;-67
2022/12/04 03:19:26;;;;;;;12.40;6.93;;;;;;;-18.21;55.39;99325.16;6204985;28;20525;-68
2022/12/04 03:22:30;;;;;;;9.18;6.28;;;;;;;-18.09;55.19;99316.91;6204166;28;20165;-66
2022/12/04 03:25:45;;;;;;;9.88;5.55;;;;;;;-17.90;54.76;99312.69;6204966;28;20046;-66
2022/12/04 03:28:57;;;;;;;6.97;4.00;;;;;;;-17.73;54.72;99296.50;6204398;28;20050;-67
2022/12/04 03:32:14;;;;;;;9.13;4.88;;;;;;;-17.64;54.60;99296.38;6187074;28;20417;-68
2022/12/04 03:35:44;;;;;;;6.05;4.60;;;;;;;-17.59;54.40;99307.72;6204934;28;20062;-67
2022/12/04 03:38:53;;;;;;;12.90;7.13;;;;;;;-17.64;54.55;99299.75;6203111;28;20433;-68
2022/12/04 03:41:58;;;;;;;11.73;7.43;;;;;;;-17.72;54.37;99309.16;6204006;28;20054;-66
2022/12/04 03:44:59;;;;;;;18.02;8.85;;;;;;;-17.79;54.73;99306.94;6204144;28;20047;-67
2022/12/04 03:48:10;;;;;;;14.65;6.70;;;;;;;-17.86;54.84;99309.69;6186782;28;20054;-66
2022/12/04 03:51:30;;;;;;;10.90;4.88;;;;;;;-17.88;54.93;99300.28;6204779;28;20042;-67
2022/12/04 03:54:43;;;;;;;11.57;6.30;;;;;;;-17.87;55.01;99302.03;6204733;28;20141;-68
2022/12/04 03:57:52;;;;;;;13.07;5.28;;;;;;;-17.79;54.90;99306.94;6204878;28;20042;-67
2022/12/04 04:00:57;;;;;;;10.45;5.50;;;;;;;-17.71;55.02;99310.97;6204077;28;20042;-67
2022/12/04 04:04:06;;;;;;;11.27;6.40;;;;;;;-17.62;55.23;99299.91;6204494;28;20042;-67
2022/12/04 04:07:15;;;;;;;17.83;5.55;;;;;;;-17.49;54.74;99307.69;6204628;28;20447;-67
2022/12/04 04:10:23;;;;;;;7.53;3.72;;;;;;;-17.39;54.51;99274.13;6204716;28;20042;-67
2022/12/04 04:24:26;;;;;;;7.35;3.60;;;;;;;-16.16;53.22;99269.63;6202605;28;20516;-67
2022/12/04 04:27:27;;;;;;;6.45;2.95;;;;;;;-15.94;53.13;99273.03;6199589;28;20057;-67
2022/12/04 04:30:31;;;;;;;7.68;3.30;;;;;;;-15.59;53.04;99276.44;6199698;28;20050;-67
2022/12/04 04:33:45;;;;;;;11.05;4.20;;;;;;;-15.08;52.65;99261.81;6200406;28;20504;-65
2022/12/04 04:36:58;;;;;;;7.55;3.63;;;;;;;-14.49;52.16;99260.16;6200421;28;20050;-66
2022/12/04 04:40:00;;;;;;;14.80;5.53;;;;;;;-14.10;51.43;99255.25;6200102;28;20065;-66
2022/12/04 04:43:09;;;;;;;7.97;4.00;;;;;;;-13.90;50.94;99260.03;6200116;28;20042;-68
2022/12/04 04:46:17;;;;;;;8.90;4.75;;;;;;;-13.79;51.20;99258.22;6182508;28;20039;-68
2022/12/04 04:49:24;;;;;;;6.43;4.25;;;;;;;-13.77;51.58;99255.81;6199559;28;20406;-67
2022/12/04 04:52:30;;;;;;;10.77;4.78;;;;;;;-13.84;51.63;99249.44;6200107;28;20045;-67
2022/12/04 04:55:35;;;;;;;11.68;5.45;;;;;;;-13.89;51.58;99266.00;6200044;28;20042;-68
2022/12/04 04:58:40;;;;;;;4.93;2.90;;;;;;;-13.95;51.93;99257.94;6199638;28;20042;-68
2022/12/04 05:01:45;;;;;;;9.20;3.85;;;;;;;-13.85;51.96;99270.47;6198877;28;20050;-67
2022/12/04 05:04:51;;;;;;;8.40;4.13;;;;;;;-13.67;52.11;99254.03;6199640;28;20046;-67
2022/12/04 05:07:55;;;;;;;7.13;3.55;;;;;;;-13.40;51.96;99255.00;6199538;28;20053;-67
2022/12/04 05:10:58;;;;;;;7.72;3.72;;;;;;;-13.11;50.95;99259.41;6199442;28;20042;-67
2022/12/04 05:14:04;;;;;;;5.03;3.40;;;;;;;-12.72;50.56;99264.47;6199516;28;20038;-67
2022/12/04 05:17:06;;;;;;;7.32;3.58;;;;;;;-12.26;49.79;99263.16;6199376;28;20528;-68
2022/12/04 05:20:09;;;;;;;14.00;5.72;;;;;;;-11.85;49.69;99267.38;6198989;28;20065;-69
2022/12/04 05:23:12;;;;;;;12.70;6.45;;;;;;;-11.53;49.17;99263.38;6214164;28;20150;-68
2022/12/04 05:26:14;;;;;;;17.75;5.70;;;;;;;-11.39;48.71;99251.50;6198181;28;20049;-67
2022/12/04 05:29:19;;;;;;;;;;;;;;;-11.19;48.73;99243.38;6199416;28;20042;-68
2022/12/04 05:32:26;;;;;;;11.73;5.25;;;;;;;-11.05;48.34;99246.72;6198906;28;19918;-68
2022/12/04 05:35:34;;;;;;;9.68;4.90;;;;;;;-10.82;48.42;99235.31;6198561;28;20144;-68
2022/12/04 05:38:36;;;;;;;12.48;4.30;;;;;;;-10.57;48.15;99227.41;6198383;28;20050;-68
2022/12/04 05:41:40;;;;;;;6.15;3.25;;;;;;;-10.38;47.73;99234.41;6198858;28;20117;-67
2022/12/04 05:44:47;;;;;;;6.00;2.78;;;;;;;-10.24;47.57;99228.38;6198735;28;20042;-68
2022/12/04 05:47:50;;;;;;;7.97;4.07;;;;;;;-10.06;47.37;99227.59;6198397;28;20054;-67
2022/12/04 05:51:00;;;;;;;10.40;3.53;;;;;;;-9.94;47.27;99218.94;6198366;28;20049;-67
2022/12/04 05:54:01;;;;;;;10.45;4.05;;;;;;;-9.76;47.19;99223.28;6197451;28;20053;-67
2022/12/04 05:57:03;;;;;;;6.93;2.97;;;;;;;-9.61;46.79;99229.16;6197010;28;20148;-67
2022/12/04 06:00:07;;;;;;;11.77;3.70;;;;;;;-9.52;46.58;99224.53;6198018;28;20058;-68
2022/12/04 06:03:11;;;;;;;9.80;4.53;;;;;;;-9.43;46.56;99223.25;6198129;28;20046;-67
2022/12/04 06:06:23;;;;;;;13.27;4.55;;;;;;;-9.33;46.90;99211.06;6197636;28;20417;-68
2022/12/04 06:09:28;;;;;;;9.27;4.45;;;;;;;-9.16;46.80;99209.38;6197507;28;20050;-67
2022/12/04 06:12:30;;;;;;;10.68;5.78;;;;;;;-8.98;46.88;99188.13;6197453;28;20056;-68
2022/12/04 06:15:38;;;;;;;8.05;4.38;;;;;;;-8.81;46.33;99189.81;6197700;28;20046;-68
2022/12/04 06:18:42;;;;;;;8.20;3.60;;;;;;;-8.55;46.47;99185.06;6196626;28;20533;-67
2022/12/04 06:21:49;;;;;;;7.97;4.25;;;;;;;-8.17;46.37;99180.06;6197130;28;20137;-68
2022/12/04 06:24:53;;;;;;;10.32;4.63;;;;;;;-7.79;45.63;99173.22;6197071;28;20042;-68
2022/12/04 06:27:59;;;;;;;6.35;3.90;;;;;;;-7.43;45.09;99183.31;6197719;28;20046;-67
2022/12/04 06:31:04;;;;;;;6.40;3.72;;;;;;;-7.29;44.61;99194.16;6196813;28;20532;-68
2022/12/04 06:34:07;;;;;;;7.63;3.67;;;;;;;-7.20;45.37;99196.22;6195837;28;20051;-68
2022/12/04 06:37:15;;;;;;;7.45;3.47;;;;;;;-6.90;44.63;99197.50;6197416;28;20609;-68
2022/12/04 06:40:22;;;;;;;6.75;3.42;;;;;;;-6.77;44.02;99191.19;6197223;28;20050;-68
2022/12/04 06:43:25;;;;;;;6.85;3.22;;;;;;;-6.40;43.62;99190.97;6196931;28;20513;-68
2022/12/04 06:46:30;;;;;;;25.10;9.93;;;;;;;-5.80;43.30;99176.97;6195503;28;20053;-67
2022/12/04 06:49:35;;;;;;;8.70;4.90;;;;;;;-5.10;42.30;99182.03;6196898;28;20577;-67
2022/12/04 06:52:40;;;;;;;8.38;3.70;;;;;;;-4.39;41.16;99169.78;6197227;28;20038;-68
2022/12/04 06:55:48;;;;;;;6.00;3.20;;;;;;;-3.74;40.14;99164.84;6196636;28;20061;-68
2022/12/04 06:58:56;;;;;;;9.55;3.97;;;;;;;-3.25;39.67;99158.50;6196485;28;20050;-68
2022/12/04 07:01:57;;;;;;;14.00;6.15;;;;;;;-2.92;39.47;99152.47;6197046;28;20577;-68
2022/12/04 07:05:01;;;;;;;15.38;6.05;;;;;;;-2.71;39.26;99153.00;6196854;28;20058;-68
2022/12/04 07:08:07;;;;;;;9.95;5.25;;;;;;;-2.68;38.66;99151.34;6196606;28;20457;-68
2022/12/04 07:11:09;;;;;;;14.55;5.88;;;;;;;-2.76;38.81;99138.28;6196561;28;20487;-67
2022/12/04 07:14:13;;;;;;;15.80;5.78;;;;;;;-2.78;38.59;99130.50;6196506;28;20030;-68
2022/12/04 07:17:19;;;;;;;18.38;5.28;;;;;;;-2.88;38.83;99127.69;6196821;28;20046;-69
2022/12/04 07:20:23;;;;;;;13.10;5.93;;;;;;;-3.03;39.21;99112.69;6196754;28;20046;-68
2022/12/04 07:23:28;;;;;;;17.33;5.82;;;;;;;-3.28;38.77;99112.09;6196144;28;20149;-68
2022/12/04 07:26:32;;;;;;;16.23;6.78;;;;;;;-3.56;39.67;99110.50;6196523;28;20042;-68
2022/12/04 07:29:33;;;;;;;7.93;4.20;;;;;;;-3.85;39.72;99092.56;6195617;28;20102;-67
2022/12/04 07:32:37;;;;;;;11.40;4.28;;;;;;;-4.13;39.67;99085.75;6195892;28;20050;-69
2022/12/04 07:35:41;;;;;;;;;;;;;;;-4.26;39.59;99083.66;6196425;28;20058;-68
2022/12/04 07:38:47;;;;;;;10.57;3.67;;;;;;;-4.54;40.19;99071.69;6196679;28;19921;-68
2022/12/04 07:41:53;;;;;;;4.90;2.58;;;;;;;-4.73;40.70;99070.22;6196356;28;20050;-67
2022/12/04 07:44:55;;;;;;;6.28;2.60;;;;;;;-4.79;40.29;99075.19;6196203;28;20141;-67
2022/12/04 07:47:57;;;;;;;5.97;2.67;;;;;;;-4.86;40.62;99074.13;6195482;28;20532;-67
2022/12/04 07:51:06;;;;;;;6.88;3.35;;;;;;;-4.90;40.70;99058.56;6196629;28;20042;-68
2022/12/04 07:54:10;;;;;;;7.95;3.78;;;;;;;-4.97;40.59;99050.69;6195565;28;20050;-68
2022/12/04 07:57:16;;;;;;;10.23;4.20;;;;;;;-4.99;40.93;99052.31;6196078;28;20437;-67
2022/12/04 08:00:18;;;;;;;14.15;4.60;;;;;;;-5.11;41.03;99046.81;6200006;28;20054;-68
2022/12/04 08:03:23;;;;;;;10.65;4.90;;;;;;;-5.22;41.05;99035.31;6200106;28;20061;-67
2022/12/04 08:06:28;;;;;;;11.57;5.43;;;;;;;-5.28;41.61;99038.56;6200938;28;20038;-68
2022/12/04 08:09:32;;;;;;;9.18;4.43;;;;;;;-5.25;41.13;99028.41;6199992;28;20042;-69
2022/12/04 08:12:38;;;;;;;8.00;3.75;;;;;;;-5.16;41.43;99025.25;6200822;28;20042;-68
2022/12/04 08:15:45;;;;;;;6.40;3.38;;;;;;;-5.01;41.79;99002.66;6199715;28;20374;-68
2022/12/04 08:18:52;;;;;;;8.23;2.63;;;;;;;-4.85;41.36;98998.81;6200035;28;20060;-68
2022/12/04 08:21:59;;;;;;;5.07;2.33;;;;;;;-4.64;41.08;99000.28;6200432;28;20046;-68
2022/12/04 08:25:07;;;;;;;5.05;2.50;;;;;;;-4.53;40.93;98997.22;6200323;28;20540;-68
2022/12/04 08:28:09;;;;;;;5.90;3.45;;;;;;;-4.36;40.92;98997.72;6199512;28;20137;-68
2022/12/04 08:31:19;;;;;;;8.00;4.07;;;;;;;-3.98;40.19;98997.03;6200291;28;20042;-68
2022/12/04 08:34:22;;;;;;;4.00;2.17;;;;;;;-2.07;38.12;98980.81;6199267;28;20054;-68
2022/12/04 08:37:36;;;;;;;4.45;2.75;;;;;;;1.84;32.20;98978.34;6198774;28;20116;-68
2022/12/04 08:40:44;;;;;;;6.15;2.40;;;;;;;2.25;31.79;98965.47;6200205;28;20066;-68
2022/12/04 08:43:56;;;;;;;5.60;2.63;;;;;;;0.95;32.96;98962.31;6199704;28;20050;-69
2022/12/04 08:47:05;;;;;;;4.70;1.95;;;;;;;-0.71;35.62;98952.84;6199652;28;20050;-69
2022/12/04 08:50:10;;;;;;;5.95;2.72;;;;;;;-1.51;37.48;98964.56;6199786;28;20038;-68
2022/12/04 08:53:19;;;;;;;6.40;2.95;;;;;;;-1.55;37.25;98962.81;6199443;28;20046;-69
2022/12/04 08:56:28;;;;;;;6.78;2.90;;;;;;;-1.05;36.05;98949.78;6199635;28;20050;-68
2022/12/04 08:59:30;;;;;;;5.18;2.67;;;;;;;0.06;35.53;98946.00;6198806;28;20082;-68
2022/12/04 09:02:34;;;;;;;8.27;3.35;;;;;;;0.62;34.36;98943.94;6198455;28;20046;-68
2022/12/04 09:05:37;;;;;;;;;;;;;;;0.43;34.85;98942.91;6199191;28;20429;-68
2022/12/04 09:08:41;;;;;;;6.25;3.70;;;;;;;-0.70;35.28;98924.44;6199400;28;20377;-68
2022/12/04 09:11:48;;;;;;;7.35;3.22;;;;;;;-1.66;37.33;98925.63;6197665;28;20046;-69
2022/12/04 09:14:52;;;;;;;7.45;4.10;;;;;;;-2.20;37.80;98923.81;6198676;28;20057;-68
2022/12/04 09:17:58;;;;;;;12.52;4.82;;;;;;;-2.67;38.96;98926.31;6199279;28;20054;-69
2022/12/04 09:21:22;;;;;;;4.97;2.20;;;;;;;-2.78;38.85;98921.78;6198390;28;20046;-68
2022/12/04 09:24:28;;;;;;;3.22;1.77;;;;;;;-3.04;39.26;98925.53;6198271;28;20057;-69
2022/12/04 09:27:36;;;;;;;2.80;1.70;;;;;;;-3.16;39.42;98916.69;6198462;28;20058;-68
2022/12/04 09:30:54;;;;;;;3.50;1.70;;;;;;;-3.14;39.39;98913.28;6199025;28;20547;-68
2022/12/04 09:34:35;;;;;;;6.35;3.28;;;;;;;-3.09;39.86;98915.13;6198519;28;20416;-69
2022/12/04 09:37:53;;;;;;;5.20;2.50;;;;;;;-3.02;39.47;98903.25;6198682;28;20046;-69
2022/12/04 09:41:13;;;;;;;10.32;4.05;;;;;;;-3.20;39.93;98904.59;6198126;28;20054;-68
2022/12/04 09:44:26;;;;;;;7.35;3.53;;;;;;;-3.41;40.60;98898.94;6198656;28;20038;-69
2022/12/04 09:47:36;;;;;;;8.52;3.67;;;;;;;-3.67;41.19;98899.22;6198543;28;20050;-69
2022/12/04 09:50:42;;;;;;;6.35;2.70;;;;;;;-3.83;41.34;98897.09;6198688;28;20054;-68
2022/12/04 09:53:53;;;;;;;7.28;3.42;;;;;;;-4.22;42.21;98884.97;6197698;28;20061;-67
2022/12/04 09:57:26;;;;;;;9.80;3.58;;;;;;;-4.44;42.48;98872.41;6198347;28;20421;-69
2022/12/04 10:00:32;;;;;;;6.78;2.83;;;;;;;-4.81;43.03;98872.28;6189685;28;20509;-69
2022/12/04 10:03:33;;;;;;;6.70;3.00;;;;;;;-5.18;43.75;98860.06;6197654;28;20065;-69
2022/12/04 10:06:46;;;;;;;6.82;2.25;;;;;;;-5.43;44.16;98856.78;6197186;28;20050;-68
2022/12/04 10:10:02;;;;;;;4.30;2.10;;;;;;;-5.64;44.33;98857.00;6197974;28;20045;-69
2022/12/04 10:13:42;;;;;;;7.03;2.40;;;;;;;-5.80;44.63;98851.34;6197910;28;20065;-68
2022/12/04 10:17:17;;;;;;;7.57;2.53;;;;;;;-5.98;45.33;98854.22;6198028;28;20133;-68
2022/12/04 10:20:56;;;;;;;2.45;1.75;;;;;;;-6.15;45.41;98846.84;6149941;29;20051;-68
2022/12/04 10:24:27;;;;;;;7.03;3.33;;;;;;;-6.36;46.26;98838.47;6149748;29;20053;-67
2022/12/04 10:27:40;;;;;;;5.82;2.75;;;;;;;-6.62;47.17;98835.91;6149636;28;20039;-70
2022/12/04 10:30:44;;;;;;;5.65;2.10;;;;;;;-6.78;47.45;98828.50;6149859;29;20050;-68
2022/12/04 10:33:52;;;;;;;6.32;4.15;;;;;;;-6.95;47.52;98824.50;6149407;28;20035;-68
2022/12/04 10:37:03;;;;;;;5.43;2.95;;;;;;;-7.00;47.42;98824.31;6149409;28;20053;-67
2022/12/04 10:40:36;;;;;;;3.40;2.40;;;;;;;-6.98;47.90;98815.00;6148941;28;20047;-68
2022/12/04 10:43:46;;;;;;;5.22;2.17;;;;;;;-7.10;48.55;98809.47;6149511;29;20430;-68
2022/12/04 10:46:54;;;;;;;3.60;2.10;;;;;;;-7.11;48.58;98805.16;6148879;28;20047;-67
2022/12/04 10:50:02;;;;;;;2.67;1.50;;;;;;;-7.19;48.99;98794.63;6148667;28;20475;-68
2022/12/04 10:53:05;;;;;;;1.75;1.40;;;;;;;-7.56;49.01;98751.53;6148545;28;20130;-68
2022/12/04 10:56:24;;;;;;;5.50;2.00;;;;;;;-7.34;48.79;98782.19;6149220;28;20418;-68
2022/12/04 10:59:31;;;;;;;4.57;2.10;;;;;;;-7.46;49.22;98761.28;6149097;28;20050;-68
2022/12/04 11:02:38;;;;;;;4.15;1.88;;;;;;;-7.59;49.87;98766.75;6149237;28;20043;-68
2022/12/04 11:05:52;;;;;;;1.98;1.45;;;;;;;-7.64;50.02;98774.28;6148907;28;20051;-68
2022/12/04 11:08:55;;;;;;;3.17;1.80;;;;;;;-7.74;50.11;98767.94;6148779;28;20426;-68
2022/12/04 11:12:17;;;;;;;3.55;2.20;;;;;;;-7.88;50.73;98758.88;6148600;28;20055;-67
2022/12/04 11:15:23;;;;;;;3.53;1.92;;;;;;;-7.91;50.58;98763.88;6149124;28;20043;-68
2022/12/04 11:18:48;;;;;;;1.95;1.50;;;;;;;-8.19;51.50;98727.03;6166178;28;20050;-69
2022/12/04 11:21:52;;;;;;;;;;;;;;;-8.18;51.10;98749.22;6195811;28;20050;-69
2022/12/04 11:24:57;;;;;;;3.10;2.23;;;;;;;-8.25;51.98;98742.13;6196140;28;19925;-68
2022/12/04 11:28:01;;;;;;;4.93;2.67;;;;;;;-8.32;52.32;98755.50;6196223;28;21039;-68
2022/12/04 11:31:07;;;;;;;6.97;3.55;;;;;;;-8.42;52.37;98748.28;6195761;28;20046;-68
2022/12/04 11:34:18;;;;;;;5.70;3.25;;;;;;;-8.54;52.46;98742.72;6199055;28;20042;-68
2022/12/04 11:37:29;;;;;;;3.17;2.30;;;;;;;-8.48;52.47;98745.50;6201820;28;20395;-67
2022/12/04 11:40:33;;;;;;;3.05;1.83;;;;;;;-8.53;52.68;98739.34;6201658;28;20494;-68
2022/12/04 11:43:47;;;;;;;7.22;3.20;;;;;;;-8.56;52.37;98744.31;6200587;28;20077;-68
2022/12/04 11:46:53;;;;;;;5.80;3.30;;;;;;;-8.51;52.63;98742.81;6201298;28;20045;-67
2022/12/04 11:50:25;;;;;;;7.13;3.70;;;;;;;-8.49;52.70;98741.19;6200319;28;20050;-67
2022/12/04 11:53:26;;;;;;;8.10;2.80;;;;;;;-8.42;52.33;98738.09;6201283;28;20042;-67
2022/12/04 11:56:35;;;;;;;9.57;3.40;;;;;;;-8.47;52.53;98737.03;6201172;28;20042;-67
2022/12/04 12:00:14;;;;;;;9.00;3.53;;;;;;;-8.46;52.75;98732.00;6200500;28;20444;-67
2022/12/04 12:03:26;;;;;;;8.60;3.67;;;;;;;-8.47;52.38;98725.13;6188134;28;20054;-67
2022/12/04 12:07:09;;;;;;;4.35;2.38;;;;;;;-8.35;52.21;98724.69;6200914;28;20629;-67
2022/12/04 12:10:42;;;;;;;3.80;2.60;;;;;;;-8.33;53.14;98723.09;6172430;28;20061;-67
2022/12/04 12:14:16;;;;;;;6.10;2.90;;;;;;;-8.31;53.17;98724.03;6200737;28;20049;-68
2022/12/04 12:17:45;;;;;;;7.57;2.90;;;;;;;-8.17;53.35;98725.44;6200279;28;20137;-67
2022/12/04 12:20:58;;;;;;;9.75;2.83;;;;;;;-8.24;53.65;98723.44;6199538;28;20051;-67
2022/12/04 12:24:22;;;;;;;6.57;3.42;;;;;;;-8.29;53.65;98719.84;6199516;28;20136;-67
2022/12/04 12:27:26;;;;;;;8.57;3.58;;;;;;;-8.32;54.12;98714.63;6200438;28;20046;-67
2022/12/04 12:30:47;;;;;;;9.35;3.58;;;;;;;-8.31;54.15;98710.38;6200286;28;20046;-68
2022/12/04 12:33:57;;;;;;;8.43;3.50;;;;;;;-8.34;54.16;98705.16;6200366;28;20042;-68
2022/12/04 12:37:20;;;;;;;11.05;3.72;;;;;;;-8.24;53.97;98705.56;6200062;28;20145;-68
2022/12/04 12:40:35;;;;;;;7.15;3.90;;;;;;;-8.28;54.13;98696.06;6200085;28;20038;-68
2022/12/04 12:43:39;;;;;;;4.15;2.90;;;;;;;-8.17;54.45;98697.34;6181934;28;20054;-67
2022/12/04 12:46:58;;;;;;;3.85;2.03;;;;;;;-8.11;53.81;98695.81;6198764;28;20050;-68
2022/12/04 12:50:18;;;;;;;5.70;2.33;;;;;;;-8.06;53.75;98681.56;6199286;28;20054;-67
2022/12/04 12:53:25;;;;;;;4.00;2.13;;;;;;;-8.00;54.46;98689.44;6199026;28;20050;-67
2022/12/04 12:56:40;;;;;;;5.68;2.03;;;;;;;-8.04;54.29;98674.78;6199956;28;20042;-68
2022/12/04 12:59:59;;;;;;;3.40;2.30;;;;;;;-8.06;54.52;98676.44;6199771;28;20145;-68
2022/12/04 13:03:11;;;;;;;4.55;2.53;;;;;;;-8.01;55.15;98675.81;6199706;28;20042;-68
2022/12/04 13:06:22;;;;;;;3.92;2.25;;;;;;;-7.95;56.01;98680.28;6199641;28;20043;-67
2022/12/04 13:09:28;;;;;;;2.63;2.13;;;;;;;-7.99;56.32;98673.28;6198828;28;20425;-68
2022/12/04 13:12:48;;;;;;;5.00;2.17;;;;;;;-8.03;56.71;98677.41;6199492;28;20496;-67
2022/12/04 13:15:55;;;;;;;8.52;2.58;;;;;;;-8.20;57.35;98658.91;6199399;28;20042;-69
2022/12/04 13:19:27;;;;;;;6.50;3.55;;;;;;;-8.25;57.79;98665.53;6198191;28;20056;-68
2022/12/04 13:22:39;;;;;;;5.90;3.58;;;;;;;-8.38;58.49;98665.84;6197512;28;20042;-67
2022/12/04 13:25:55;;;;;;;8.40;4.22;;;;;;;-8.46;58.08;98652.00;6199023;28;20041;-67
2022/12/04 13:29:32;;;;;;;8.57;4.28;;;;;;;-8.50;58.69;98647.56;6198710;28;20046;-69
2022/12/04 13:32:57;;;;;;;8.52;4.47;;;;;;;-8.65;58.42;98641.06;6198914;28;20054;-67
2022/12/04 13:36:10;;;;;;;10.73;5.63;;;;;;;-8.76;59.00;98638.91;6199015;28;20046;-68
2022/12/04 13:39:49;;;;;;;8.23;4.93;;;;;;;-8.86;58.89;98633.44;6199023;28;20444;-68
2022/12/04 13:42:50;;;;;;;10.68;4.57;;;;;;;-8.81;59.20;98636.16;6198188;28;20065;-68
2022/12/04 13:45:57;;;;;;;10.63;4.47;;;;;;;-8.69;59.05;98638.31;6198985;28;20042;-68
2022/12/04 13:49:19;;;;;;;7.68;4.82;;;;;;;-8.57;59.18;98631.16;6198595;28;20061;-67
2022/12/04 13:52:23;;;;;;;9.93;4.93;;;;;;;-8.61;58.69;98627.59;6198634;28;20383;-68
2022/12/04 13:55:40;;;;;;;6.75;4.78;;;;;;;-8.50;58.85;98637.34;6198492;28;20409;-67
2022/12/04 13:58:42;;;;;;;19.73;7.93;;;;;;;-8.46;58.88;98629.88;6198424;28;20038;-67
2022/12/04 14:01:49;;;;;;;52.40;17.40;;;;;;;-8.44;58.78;98635.03;6197630;28;20046;-68
2022/12/04 14:05:03;;;;;;;33.28;12.18;;;;;;;-8.39;58.84;98625.88;6197572;28;20042;-67
2022/12/04 14:08:19;;;;;;;18.08;7.60;;;;;;;-8.33;58.39;98626.06;6198302;28;20413;-67
2022/12/04 14:11:24;;;;;;;16.48;6.63;;;;;;;-8.30;58.19;98617.66;6198251;28;20046;-68
2022/12/04 14:14:41;;;;;;;11.90;6.20;;;;;;;-8.23;58.69;98617.06;6180542;28;20092;-68
2022/12/04 14:17:54;;;;;;;11.98;5.43;;;;;;;-8.18;58.36;98616.44;6197875;28;20047;-68
2022/12/04 14:21:03;;;;;;;16.50;6.63;;;;;;;-8.13;58.34;98608.91;6196950;28;20500;-69
2022/12/04 14:24:31;;;;;;;21.17;7.80;;;;;;;-8.08;58.96;98611.66;6197376;28;20065;-68
2022/12/04 14:27:53;;;;;;;27.52;10.75;;;;;;;-8.02;59.38;98604.22;6196045;28;20402;-68
2022/12/04 14:31:07;;;;;;;25.80;10.25;;;;;;;-8.05;59.26;98599.84;6197619;28;20057;-68
2022/12/04 14:34:26;;;;;;;17.58;8.38;;;;;;;-8.07;58.92;98598.06;6197531;28;20137;-68
2022/12/04 14:37:34;;;;;;;17.48;7.50;;;;;;;-8.10;59.20;98591.16;6196653;28;20046;-68
2022/12/04 14:40:47;;;;;;;14.55;7.35;;;;;;;-8.07;58.87;98603.16;6197423;28;20501;-68
2022/12/04 14:43:50;;;;;;;13.85;5.90;;;;;;;-8.05;59.03;98593.88;6197475;28;20038;-68
2022/12/04 14:47:04;;;;;;;18.77;7.93;;;;;;;-8.04;58.93;98593.06;6197361;28;20391;-68
2022/12/04 14:50:40;;;;;;;11.70;5.60;;;;;;;-8.03;59.19;98584.59;6196495;28;20062;-67
2022/12/04 14:54:07;;;;;;;7.75;3.60;;;;;;;-8.03;58.92;98580.34;6197197;28;20073;-68
2022/12/04 14:57:13;;;;;;;6.95;3.78;;;;;;;-8.05;58.39;98578.56;6197091;28;20038;-68